createdAt,value
2018-09-15T00:00:08.037Z,100982.00
2018-09-15T00:02:37.229Z,100985.00
2018-09-15T00:05:06.470Z,100983.00
2018-09-15T00:07:35.754Z,100990.00
2018-09-15T00:10:04.835Z,100997.00
2018-09-15T00:12:33.935Z,100985.00
2018-09-15T00:15:02.993Z,100982.00
2018-09-15T00:17:32.105Z,100982.00
2018-09-15T00:20:01.170Z,100988.00
2018-09-15T00:22:30.252Z,100993.00
2018-09-15T00:24:59.499Z,100984.00
2018-09-15T00:27:28.563Z,100983.00
2018-09-15T00:29:57.686Z,100985.00
2018-09-15T00:32:26.831Z,100981.00
2018-09-15T00:34:56.101Z,100989.00
2018-09-15T00:37:25.187Z,100987.00
2018-09-15T00:39:54.380Z,100984.00
2018-09-15T00:42:23.465Z,100985.00
2018-09-15T00:44:52.544Z,100993.00
2018-09-15T00:47:21.640Z,100980.00
2018-09-15T00:49:50.846Z,100971.00
2018-09-15T00:52:19.958Z,100973.00
2018-09-15T00:54:49.108Z,100972.00
2018-09-15T00:57:18.178Z,100981.00
2018-09-15T00:59:47.335Z,100977.00
2018-09-15T01:02:16.495Z,100988.00
2018-09-15T01:04:45.652Z,100978.00
2018-09-15T01:07:14.751Z,100978.00
2018-09-15T01:09:43.833Z,100982.00
2018-09-15T01:12:12.955Z,100970.00
2018-09-15T01:14:42.045Z,100982.00
2018-09-15T01:17:11.104Z,100980.00
2018-09-15T01:19:40.335Z,100985.00
2018-09-15T01:22:09.443Z,100983.00
2018-09-15T01:24:38.528Z,100982.00
2018-09-15T01:27:07.645Z,100980.00
2018-09-15T01:29:36.768Z,100975.00
2018-09-15T01:32:05.905Z,100973.00
2018-09-15T01:34:35.045Z,100972.00
2018-09-15T01:37:04.136Z,100974.00
2018-09-15T01:39:33.225Z,100976.00
2018-09-15T01:42:02.269Z,100982.00
2018-09-15T01:44:31.353Z,100967.00
2018-09-15T01:47:00.372Z,100964.00
2018-09-15T01:49:29.440Z,100971.00
2018-09-15T01:51:58.541Z,100970.00
2018-09-15T01:54:27.687Z,100977.00
2018-09-15T01:56:56.809Z,100969.00
2018-09-15T01:59:25.929Z,100965.00
2018-09-15T02:01:55.229Z,100966.00
2018-09-15T02:04:24.351Z,100962.00
2018-09-15T02:06:53.394Z,100965.00
2018-09-15T02:09:22.431Z,100970.00
2018-09-15T02:11:51.608Z,100972.00
2018-09-15T02:14:20.717Z,100975.00
2018-09-15T02:16:49.810Z,100963.00
2018-09-15T02:19:18.844Z,100961.00
2018-09-15T02:21:47.945Z,100952.00
2018-09-15T02:24:16.997Z,100958.00
2018-09-15T02:26:46.033Z,100958.00
2018-09-15T02:29:15.104Z,100962.00
2018-09-15T02:31:44.177Z,100958.00
2018-09-15T02:34:13.238Z,100956.00
2018-09-15T02:36:42.455Z,100955.00
2018-09-15T02:39:12.322Z,100957.00
2018-09-15T02:41:41.417Z,100953.00
2018-09-15T02:44:10.536Z,100951.00
2018-09-15T02:46:39.650Z,100946.00
2018-09-15T02:49:08.703Z,100955.00
2018-09-15T02:51:37.818Z,100954.00
2018-09-15T02:54:07.103Z,100954.00
2018-09-15T02:56:36.147Z,100965.00
2018-09-15T02:59:05.255Z,100959.00
2018-09-15T03:01:34.408Z,100959.00
2018-09-15T03:04:03.497Z,100965.00
2018-09-15T03:06:32.562Z,100949.00
2018-09-15T03:09:01.638Z,100959.00
2018-09-15T03:11:30.774Z,100958.00
2018-09-15T03:13:59.891Z,100963.00
2018-09-15T03:16:28.959Z,100964.00
2018-09-15T03:18:58.025Z,100964.00
2018-09-15T03:21:27.073Z,100962.00
2018-09-15T03:23:56.180Z,100953.00
2018-09-15T03:26:25.247Z,100955.00
2018-09-15T03:28:54.490Z,100948.00
2018-09-15T03:31:23.652Z,100952.00
2018-09-15T03:33:52.850Z,100955.00
2018-09-15T03:36:22.242Z,100957.00
2018-09-15T03:38:51.299Z,100955.00
2018-09-15T03:41:20.397Z,100950.00
2018-09-15T03:43:49.801Z,100951.00
2018-09-15T03:46:18.905Z,100951.00
2018-09-15T03:48:47.947Z,100948.00
2018-09-15T03:51:17.155Z,100942.00
2018-09-15T03:53:46.271Z,100950.00
2018-09-15T03:56:15.475Z,100947.00
2018-09-15T03:58:44.545Z,100951.00
2018-09-15T04:01:13.642Z,100953.00
2018-09-15T04:03:43.306Z,100952.00
2018-09-15T04:06:12.406Z,100956.00
2018-09-15T04:08:41.483Z,100964.00
2018-09-15T04:11:10.525Z,100958.00
2018-09-15T04:13:39.696Z,100965.00
2018-09-15T04:16:08.789Z,100957.00
2018-09-15T04:18:37.862Z,100958.00
2018-09-15T04:21:06.924Z,100956.00
2018-09-15T04:23:35.973Z,100976.00
2018-09-15T04:26:05.103Z,100961.00
2018-09-15T04:28:34.197Z,100970.00
2018-09-15T04:31:03.316Z,100974.00
2018-09-15T04:33:32.410Z,100971.00
2018-09-15T04:36:01.742Z,100970.00
2018-09-15T04:38:30.815Z,100979.00
2018-09-15T04:40:59.920Z,100974.00
2018-09-15T04:43:28.980Z,100988.00
2018-09-15T04:45:58.121Z,100985.00
2018-09-15T04:48:28.056Z,100995.00
2018-09-15T04:50:57.196Z,100993.00
2018-09-15T04:53:26.333Z,100996.00
2018-09-15T04:55:55.584Z,100980.00
2018-09-15T04:58:24.644Z,100989.00
2018-09-15T05:01:06.488Z,101000.00
2018-09-15T05:03:36.190Z,100987.00
2018-09-15T05:06:05.340Z,100994.00
2018-09-15T05:08:34.484Z,100995.00
2018-09-15T05:11:03.648Z,100997.00
2018-09-15T05:13:32.867Z,100998.00
2018-09-15T05:16:01.959Z,100996.00
2018-09-15T05:18:31.174Z,100992.00
2018-09-15T05:21:00.459Z,100998.00
2018-09-15T05:23:29.861Z,100997.00
2018-09-15T05:25:59.113Z,101005.00
2018-09-15T05:28:28.274Z,101017.00
2018-09-15T05:30:57.370Z,101019.00
2018-09-15T05:33:26.433Z,101013.00
2018-09-15T05:35:55.658Z,101021.00
2018-09-15T05:38:24.749Z,101013.00
2018-09-15T05:40:53.827Z,101019.00
2018-09-15T05:43:22.917Z,101021.00
2018-09-15T05:45:52.059Z,101024.00
2018-09-15T05:48:21.134Z,101027.00
2018-09-15T05:50:50.191Z,101031.00
2018-09-15T05:53:19.331Z,101033.00
2018-09-15T05:55:51.304Z,101040.00
2018-09-15T05:58:20.381Z,101051.00
2018-09-15T06:00:49.631Z,101052.00
2018-09-15T06:03:18.702Z,101058.00
2018-09-15T06:05:47.762Z,101054.00
2018-09-15T06:08:16.919Z,101057.00
2018-09-15T06:10:45.972Z,101057.00
2018-09-15T06:13:15.055Z,101071.00
2018-09-15T06:15:44.097Z,101069.00
2018-09-15T06:18:13.227Z,101079.00
2018-09-15T06:20:42.342Z,101080.00
2018-09-15T06:23:11.486Z,101067.00
2018-09-15T06:25:40.598Z,101063.00
2018-09-15T06:28:10.297Z,101086.00
2018-09-15T06:30:39.457Z,101093.00
2018-09-15T06:33:08.671Z,101099.00
2018-09-15T06:35:37.923Z,101103.00
2018-09-15T06:38:07.001Z,101094.00
2018-09-15T06:40:36.142Z,101100.00
2018-09-15T06:43:05.359Z,101109.00
2018-09-15T06:45:34.555Z,101102.00
2018-09-15T06:48:03.814Z,101110.00
2018-09-15T06:50:32.943Z,101102.00
2018-09-15T06:53:02.067Z,101100.00
2018-09-15T06:55:31.154Z,101100.00
2018-09-15T06:58:00.306Z,101106.00
2018-09-15T07:00:29.336Z,101101.00
2018-09-15T07:02:58.394Z,101108.00
2018-09-15T07:05:27.458Z,101107.00
2018-09-15T07:07:56.734Z,101113.00
2018-09-15T07:10:25.832Z,101107.00
2018-09-15T07:12:54.980Z,101117.00
2018-09-15T07:15:24.076Z,101119.00
2018-09-15T07:17:53.152Z,101118.00
2018-09-15T07:20:22.254Z,101123.00
2018-09-15T07:22:51.421Z,101131.00
2018-09-15T07:25:20.542Z,101129.00
2018-09-15T07:27:49.592Z,101127.00
2018-09-15T07:30:18.831Z,101136.00
2018-09-15T07:32:47.959Z,101130.00
2018-09-15T07:35:17.103Z,101132.00
2018-09-15T07:37:46.272Z,101142.00
2018-09-15T07:40:15.335Z,101141.00
2018-09-15T07:42:44.425Z,101149.00
2018-09-15T07:45:13.521Z,101147.00
2018-09-15T07:47:42.633Z,101152.00
2018-09-15T07:50:12.240Z,101163.00
2018-09-15T07:52:41.349Z,101157.00
2018-09-15T07:55:10.411Z,101167.00
2018-09-15T07:57:39.786Z,101167.00
2018-09-15T08:00:08.931Z,101165.00
2018-09-15T08:02:38.068Z,101166.00
2018-09-15T08:05:07.182Z,101164.00
2018-09-15T08:07:36.373Z,101173.00
2018-09-15T08:10:05.675Z,101174.00
2018-09-15T08:12:34.785Z,101173.00
2018-09-15T08:15:03.997Z,101174.00
2018-09-15T08:17:33.121Z,101175.00
2018-09-15T08:20:02.220Z,101180.00
2018-09-15T08:22:31.377Z,101174.00
2018-09-15T08:25:00.704Z,101184.00
2018-09-15T08:27:30.036Z,101173.00
2018-09-15T08:29:59.476Z,101182.00
2018-09-15T08:32:28.931Z,101184.00
2018-09-15T08:34:58.202Z,101185.00
2018-09-15T08:37:27.490Z,101194.00
2018-09-15T08:39:56.789Z,101182.00
2018-09-15T08:42:25.988Z,101187.00
2018-09-15T08:44:55.094Z,101167.00
2018-09-15T08:47:24.272Z,101191.00
2018-09-15T08:49:53.583Z,101198.00
2018-09-15T08:52:22.745Z,101191.00
2018-09-15T08:54:51.940Z,101197.00
2018-09-15T08:57:21.065Z,101194.00
2018-09-15T08:59:50.358Z,101197.00
2018-09-15T09:02:19.484Z,101193.00
2018-09-15T09:04:49.552Z,101200.00
2018-09-15T09:07:18.710Z,101199.00
2018-09-15T09:09:47.858Z,101201.00
2018-09-15T09:12:17.025Z,101192.00
2018-09-15T09:14:46.329Z,101199.00
2018-09-15T09:17:15.377Z,101195.00
2018-09-15T09:19:44.484Z,101199.00
2018-09-15T09:22:13.607Z,101192.00
2018-09-15T09:24:43.006Z,101201.00
2018-09-15T09:27:12.243Z,101213.00
2018-09-15T09:29:41.713Z,101209.00
2018-09-15T09:32:10.844Z,101206.00
2018-09-15T09:34:40.050Z,101210.00
2018-09-15T09:37:09.711Z,101210.00
2018-09-15T09:39:40.144Z,101210.00
2018-09-15T09:42:10.737Z,101217.00
2018-09-15T09:44:40.042Z,101218.00
2018-09-15T09:47:09.288Z,101206.00
2018-09-15T09:49:38.462Z,101209.00
2018-09-15T09:52:07.978Z,101214.00
2018-09-15T09:54:37.092Z,101212.00
2018-09-15T09:57:06.212Z,101210.00
2018-09-15T09:59:35.377Z,101227.00
2018-09-15T10:02:10.854Z,101226.00
2018-09-15T10:04:40.055Z,101223.00
2018-09-15T10:07:11.144Z,101232.00
2018-09-15T10:09:41.127Z,101223.00
2018-09-15T10:12:10.193Z,101218.00
2018-09-15T10:14:39.348Z,101208.00
2018-09-15T10:17:10.106Z,101212.00
2018-09-15T10:19:39.476Z,101221.00
2018-09-15T10:22:08.661Z,101216.00
2018-09-15T10:24:37.890Z,101226.00
2018-09-15T10:27:07.900Z,101231.00
2018-09-15T10:29:37.354Z,101230.00
2018-09-15T10:32:07.072Z,101217.00
2018-09-15T10:34:39.275Z,101222.00
2018-09-15T10:37:08.577Z,101212.00
2018-09-15T10:39:38.753Z,101215.00
2018-09-15T10:42:08.114Z,101221.00
2018-09-15T10:44:37.312Z,101228.00
2018-09-15T10:47:06.595Z,101232.00
2018-09-15T10:49:36.411Z,101229.00
2018-09-15T10:52:05.535Z,101223.00
2018-09-15T10:54:36.347Z,101224.00
2018-09-15T10:57:06.420Z,101221.00
2018-09-15T10:59:36.924Z,101229.00
2018-09-15T11:02:06.581Z,101225.00
2018-09-15T11:04:36.434Z,101214.00
2018-09-15T11:07:06.352Z,101221.00
2018-09-15T11:09:35.885Z,101222.00
2018-09-15T11:12:05.048Z,101222.00
2018-09-15T11:14:34.252Z,101220.00
2018-09-15T11:17:04.370Z,101215.00
2018-09-15T11:19:33.469Z,101234.00
2018-09-15T11:22:02.819Z,101237.00
2018-09-15T11:24:32.330Z,101231.00
2018-09-15T11:27:08.287Z,101241.00
2018-09-15T11:29:38.266Z,101244.00
2018-09-15T11:32:12.133Z,101245.00
2018-09-15T11:34:45.981Z,101247.00
2018-09-15T11:37:19.933Z,101233.00
2018-09-15T11:39:53.946Z,101248.00
2018-09-15T11:42:29.100Z,101277.00
2018-09-15T11:45:17.180Z,101287.00
2018-09-15T11:48:01.746Z,101295.00
2018-09-15T11:50:37.735Z,101304.00
2018-09-15T11:53:19.666Z,101307.00
2018-09-15T11:55:55.968Z,101308.00
2018-09-15T11:58:37.757Z,101306.00
2018-09-15T12:04:23.490Z,101311.00
2018-09-15T12:07:02.009Z,101318.00
2018-09-15T12:09:31.249Z,101313.00
2018-09-15T12:12:00.437Z,101329.00
2018-09-15T12:14:31.106Z,101327.00
2018-09-15T12:17:00.445Z,101330.00
2018-09-15T12:19:29.573Z,101332.00
2018-09-15T12:22:00.041Z,101336.00
2018-09-15T12:24:31.726Z,101322.00
2018-09-15T12:27:01.084Z,101326.00
2018-09-15T12:29:30.220Z,101326.00
2018-09-15T12:32:00.828Z,101327.00
2018-09-15T12:34:30.098Z,101332.00
2018-09-15T12:37:03.047Z,101338.00
2018-09-15T12:39:32.314Z,101336.00
2018-09-15T12:42:02.399Z,101333.00
2018-09-15T12:44:34.484Z,101338.00
2018-09-15T12:47:05.406Z,101310.00
2018-09-15T12:49:35.745Z,101327.00
2018-09-15T12:52:10.075Z,101333.00
2018-09-15T12:54:39.172Z,101329.00
2018-09-15T12:57:13.849Z,101332.00
2018-09-15T12:59:46.598Z,101327.00
2018-09-15T13:02:18.529Z,101337.00
2018-09-15T13:04:50.221Z,101333.00
2018-09-15T13:07:21.989Z,101322.00
2018-09-15T13:09:55.285Z,101329.00
2018-09-15T13:12:26.631Z,101330.00
2018-09-15T13:14:57.656Z,101335.00
2018-09-15T13:17:31.720Z,101332.00
2018-09-15T13:20:03.648Z,101325.00
2018-09-15T13:22:35.016Z,101323.00
2018-09-15T13:25:06.236Z,101322.00
2018-09-15T13:27:40.073Z,101335.00
2018-09-15T13:30:14.419Z,101341.00
2018-09-15T13:32:51.203Z,101345.00
2018-09-15T13:35:23.177Z,101340.00
2018-09-15T13:37:55.703Z,101343.00
2018-09-15T13:40:24.812Z,101344.00
2018-09-15T13:42:55.295Z,101342.00
2018-09-15T13:45:29.262Z,101347.00
2018-09-15T13:48:00.043Z,101350.00
2018-09-15T13:50:32.773Z,101342.00
2018-09-15T13:53:12.542Z,101343.00
2018-09-15T13:55:48.331Z,101333.00
2018-09-15T13:58:25.183Z,101341.00
2018-09-15T14:00:55.935Z,101347.00
2018-09-15T14:03:27.684Z,101348.00
2018-09-15T14:05:58.664Z,101348.00
2018-09-15T14:08:36.328Z,101357.00
2018-09-15T14:11:08.929Z,101356.00
2018-09-15T14:13:42.701Z,101358.00
2018-09-15T14:16:16.031Z,101360.00
2018-09-15T14:18:50.257Z,101363.00
2018-09-15T14:21:21.246Z,101352.00
2018-09-15T14:23:55.371Z,101364.00
2018-09-15T14:26:31.182Z,101369.00
2018-09-15T14:29:02.373Z,101360.00
2018-09-15T14:31:35.346Z,101361.00
2018-09-15T14:34:04.550Z,101361.00
2018-09-15T14:36:34.348Z,101358.00
2018-09-15T14:39:07.669Z,101359.00
2018-09-15T14:41:39.550Z,101363.00
2018-09-15T14:44:12.569Z,101360.00
2018-09-15T14:46:47.105Z,101367.00
2018-09-15T14:49:20.613Z,101360.00
2018-09-15T14:51:53.172Z,101355.00
2018-09-15T14:54:22.932Z,101351.00
2018-09-15T14:56:56.209Z,101359.00
2018-09-15T14:59:29.750Z,101365.00
2018-09-15T15:02:03.617Z,101377.00
2018-09-15T15:04:38.444Z,101368.00
2018-09-15T15:07:22.898Z,101370.00
2018-09-15T15:10:00.119Z,101368.00
2018-09-15T15:12:32.664Z,101373.00
2018-09-15T15:15:02.916Z,101368.00
2018-09-15T15:17:33.046Z,101364.00
2018-09-15T15:20:10.566Z,101375.00
2018-09-15T15:22:42.823Z,101380.00
2018-09-15T15:25:19.905Z,101376.00
2018-09-15T15:27:51.809Z,101368.00
2018-09-15T15:30:23.947Z,101379.00
2018-09-15T15:35:33.143Z,101387.00
2018-09-15T15:38:07.383Z,101383.00
2018-09-15T15:40:40.291Z,101381.00
2018-09-15T15:43:19.044Z,101370.00
2018-09-15T15:45:53.074Z,101387.00
2018-09-15T15:48:25.091Z,101390.00
2018-09-15T15:51:02.957Z,101380.00
2018-09-15T15:53:46.225Z,101379.00
2018-09-15T15:56:22.301Z,101384.00
2018-09-15T15:58:58.025Z,101378.00
2018-09-15T16:01:32.600Z,101387.00
2018-09-15T16:04:03.137Z,101389.00
2018-09-15T16:06:36.689Z,101388.00
2018-09-15T16:09:31.850Z,101377.00
2018-09-15T16:12:04.101Z,101381.00
2018-09-15T16:14:53.901Z,101382.00
2018-09-15T16:17:32.307Z,101381.00
2018-09-15T16:20:12.488Z,101385.00
2018-09-15T16:22:50.134Z,101377.00
2018-09-15T16:25:23.722Z,101386.00
2018-09-15T16:27:59.560Z,101393.00
2018-09-15T16:30:40.705Z,101381.00
2018-09-15T16:33:14.500Z,101383.00
2018-09-15T16:35:50.141Z,101386.00
2018-09-15T16:38:22.729Z,101403.00
2018-09-15T16:40:55.998Z,101387.00
2018-09-15T16:43:43.473Z,101391.00
2018-09-15T16:46:19.695Z,101394.00
2018-09-15T16:48:52.295Z,101412.00
2018-09-15T16:51:28.402Z,101421.00
2018-09-15T16:54:15.706Z,101426.00
2018-09-15T16:56:59.199Z,101421.00
2018-09-15T16:59:30.443Z,101433.00
2018-09-15T17:02:05.738Z,101435.00
2018-09-15T17:04:48.670Z,101430.00
2018-09-15T17:07:24.170Z,101432.00
2018-09-15T17:10:05.238Z,101425.00
2018-09-15T17:12:38.701Z,101428.00
2018-09-15T17:15:17.743Z,101434.00
2018-09-15T17:17:52.189Z,101433.00
2018-09-15T17:20:21.623Z,101437.00
2018-09-15T17:22:51.536Z,101442.00
2018-09-15T17:25:21.322Z,101440.00
2018-09-15T17:27:50.695Z,101448.00
2018-09-15T17:30:20.330Z,101448.00
2018-09-15T17:32:50.825Z,101449.00
2018-09-15T17:35:20.250Z,101456.00
2018-09-15T17:37:49.670Z,101447.00
2018-09-15T17:40:20.427Z,101449.00
2018-09-15T17:42:50.675Z,101457.00
2018-09-15T17:45:19.878Z,101455.00
2018-09-15T17:47:56.272Z,101466.00
2018-09-15T17:50:25.566Z,101457.00
2018-09-15T17:52:54.850Z,101459.00
2018-09-15T17:55:24.367Z,101478.00
2018-09-15T17:57:53.507Z,101463.00
2018-09-15T18:00:24.467Z,101477.00
2018-09-15T18:02:53.703Z,101482.00
2018-09-15T18:05:22.881Z,101494.00
2018-09-15T18:07:53.059Z,101492.00
2018-09-15T18:10:23.954Z,101489.00
2018-09-15T18:12:54.259Z,101493.00
2018-09-15T18:15:24.515Z,101496.00
2018-09-15T18:17:56.227Z,101499.00
2018-09-15T18:20:26.092Z,101506.00
2018-09-15T18:22:58.430Z,101513.00
2018-09-15T18:25:29.003Z,101515.00
2018-09-15T18:28:00.235Z,101522.00
2018-09-15T18:30:32.300Z,101524.00
2018-09-15T18:33:02.241Z,101528.00
2018-09-15T18:35:34.206Z,101524.00
2018-09-15T18:38:06.248Z,101533.00
2018-09-15T18:40:39.475Z,101530.00
2018-09-15T18:43:09.190Z,101538.00
2018-09-15T18:45:40.968Z,101531.00
2018-09-15T18:48:10.400Z,101539.00
2018-09-15T18:50:40.589Z,101533.00
2018-09-15T18:53:10.993Z,101530.00
2018-09-15T18:55:40.640Z,101530.00
2018-09-15T18:58:10.097Z,101536.00
2018-09-15T19:00:39.833Z,101531.00
2018-09-15T19:03:13.453Z,101538.00
2018-09-15T19:05:42.989Z,101536.00
2018-09-15T19:08:12.793Z,101539.00
2018-09-15T19:10:43.740Z,101540.00
2018-09-15T19:13:14.001Z,101543.00
2018-09-15T19:15:44.075Z,101545.00
2018-09-15T19:18:14.437Z,101541.00
2018-09-15T19:20:45.169Z,101545.00
2018-09-15T19:23:14.563Z,101546.00
2018-09-15T19:25:43.945Z,101553.00
2018-09-15T19:28:13.834Z,101555.00
2018-09-15T19:30:43.195Z,101555.00
2018-09-15T19:33:12.510Z,101561.00
2018-09-15T19:35:41.679Z,101562.00
2018-09-15T19:38:10.833Z,101564.00
2018-09-15T19:40:40.029Z,101568.00
2018-09-15T19:43:09.242Z,101563.00
2018-09-15T19:45:38.569Z,101569.00
2018-09-15T19:48:07.677Z,101573.00
2018-09-15T19:50:36.782Z,101566.00
2018-09-15T19:53:05.915Z,101569.00
2018-09-15T19:55:35.099Z,101573.00
2018-09-15T19:58:04.208Z,101578.00
2018-09-15T20:00:33.352Z,101575.00
2018-09-15T20:03:03.233Z,101572.00
2018-09-15T20:05:32.485Z,101572.00
2018-09-15T20:08:01.663Z,101573.00
2018-09-15T20:10:30.802Z,101564.00
2018-09-15T20:13:00.032Z,101566.00
2018-09-15T20:15:28.963Z,101561.00
2018-09-15T20:17:56.928Z,101567.00
2018-09-15T20:20:25.322Z,101557.00
2018-09-15T20:22:56.117Z,101567.00
2018-09-15T20:25:25.746Z,101561.00
2018-09-15T20:27:55.493Z,101567.00
2018-09-15T20:30:25.349Z,101573.00
2018-09-15T20:32:56.099Z,101574.00
2018-09-15T20:35:25.253Z,101573.00
2018-09-15T20:37:54.469Z,101573.00
2018-09-15T20:40:24.415Z,101579.00
2018-09-15T20:42:53.577Z,101577.00
2018-09-15T20:45:22.669Z,101576.00
2018-09-15T20:47:51.884Z,101578.00
2018-09-15T20:50:21.147Z,101583.00
2018-09-15T20:52:50.282Z,101581.00
2018-09-15T20:55:19.441Z,101584.00
2018-09-15T20:57:48.508Z,101582.00
2018-09-15T21:00:17.701Z,101587.00
2018-09-15T21:02:46.901Z,101589.00
2018-09-15T21:05:17.058Z,101590.00
2018-09-15T21:07:46.130Z,101593.00
2018-09-15T21:10:15.260Z,101583.00
2018-09-15T21:12:44.602Z,101601.00
2018-09-15T21:15:13.722Z,101594.00
2018-09-15T21:17:42.928Z,101598.00
2018-09-15T21:20:12.084Z,101602.00
2018-09-15T21:22:41.562Z,101599.00
2018-09-15T21:25:10.728Z,101606.00
2018-09-15T21:27:39.938Z,101615.00
2018-09-15T21:30:09.257Z,101608.00
2018-09-15T21:32:39.323Z,101605.00
2018-09-15T21:35:08.655Z,101603.00
2018-09-15T21:37:38.185Z,101615.00
2018-09-15T21:40:07.582Z,101617.00
2018-09-15T21:42:36.866Z,101620.00
2018-09-15T21:45:08.557Z,101627.00
2018-09-15T21:47:38.138Z,101626.00
2018-09-15T21:50:07.693Z,101630.00
2018-09-15T21:52:37.082Z,101631.00
2018-09-15T21:55:07.814Z,101621.00
2018-09-15T21:57:37.215Z,101615.00
2018-09-15T22:00:10.062Z,101627.00
2018-09-15T22:02:39.650Z,101633.00
2018-09-15T22:05:09.419Z,101623.00
2018-09-15T22:07:38.940Z,101618.00
2018-09-15T22:10:08.238Z,101624.00
2018-09-15T22:12:37.498Z,101620.00
2018-09-15T22:15:10.876Z,101616.00
2018-09-15T22:17:40.571Z,101628.00
2018-09-15T22:20:09.699Z,101622.00
2018-09-15T22:22:39.019Z,101618.00
2018-09-15T22:25:08.185Z,101625.00
2018-09-15T22:27:37.386Z,101627.00
2018-09-15T22:30:07.460Z,101619.00
2018-09-15T22:32:36.801Z,101632.00
2018-09-15T22:35:05.977Z,101626.00
2018-09-15T22:37:35.118Z,101627.00
2018-09-15T22:40:04.790Z,101627.00
2018-09-15T22:42:33.934Z,101628.00
2018-09-15T22:45:03.602Z,101626.00
2018-09-15T22:47:32.839Z,101620.00
2018-09-15T22:50:02.109Z,101623.00
2018-09-15T22:52:31.357Z,101632.00
2018-09-15T22:55:00.683Z,101620.00
2018-09-15T22:57:29.776Z,101624.00
2018-09-15T22:59:59.094Z,101628.00
2018-09-15T23:02:35.080Z,101617.00
2018-09-15T23:05:04.223Z,101623.00
2018-09-15T23:07:33.422Z,101627.00
2018-09-15T23:10:02.609Z,101623.00
2018-09-15T23:12:31.822Z,101624.00
2018-09-15T23:15:00.984Z,101635.00
2018-09-15T23:17:30.200Z,101628.00
2018-09-15T23:19:59.281Z,101625.00
2018-09-15T23:22:28.566Z,101630.00
2018-09-15T23:24:57.699Z,101626.00
2018-09-15T23:27:26.869Z,101635.00
2018-09-15T23:29:56.199Z,101632.00
2018-09-15T23:32:25.401Z,101634.00
2018-09-15T23:34:54.694Z,101631.00
2018-09-15T23:37:23.847Z,101630.00
2018-09-15T23:39:53.074Z,101631.00
2018-09-15T23:42:22.224Z,101623.00
2018-09-15T23:44:51.326Z,101623.00
2018-09-15T23:47:20.432Z,101624.00
2018-09-15T23:49:49.612Z,101619.00
2018-09-15T23:52:18.718Z,101618.00
2018-09-15T23:54:47.915Z,101626.00
2018-09-15T23:57:17.106Z,101617.00
2018-09-15T23:59:46.267Z,101608.00
